createdAt,value
2022-10-19T00:01:24.923Z,100406.06
2022-10-19T00:05:41.091Z,100398.38
2022-10-19T00:09:57.291Z,100401.12
2022-10-19T00:14:16.195Z,100408.25
2022-10-19T00:18:32.321Z,100392.09
2022-10-19T00:22:50.978Z,100389.09
2022-10-19T00:27:07.128Z,100390.19
2022-10-19T00:31:23.415Z,100390.69
2022-10-19T00:35:42.888Z,100378.66
2022-10-19T00:39:59.096Z,100384.16
2022-10-19T00:44:16.118Z,100368.78
2022-10-19T00:48:33.452Z,100368.28
2022-10-19T00:52:49.527Z,100371.53
2022-10-19T00:57:06.887Z,100370.16
2022-10-19T01:01:24.821Z,100374.25
2022-10-19T01:05:41.431Z,100358.09
2022-10-19T01:09:57.910Z,100355.25
2022-10-19T01:14:44.662Z,100351.78
2022-10-19T01:19:11.031Z,100338.59
2022-10-19T01:23:59.577Z,100332.66
2022-10-19T01:28:28.719Z,100352.09
2022-10-19T01:33:04.871Z,100336.88
2022-10-19T01:37:37.830Z,100334.84
2022-10-19T01:42:22.700Z,100340.88
2022-10-19T01:46:50.177Z,100344.12
2022-10-19T01:51:15.151Z,100351.84
2022-10-19T01:55:32.537Z,100346.09
2022-10-19T01:59:49.549Z,100342.28
2022-10-19T02:04:05.938Z,100338.69
2022-10-19T02:08:27.949Z,100335.41
2022-10-19T02:12:44.596Z,100343.34
2022-10-19T02:17:06.233Z,100327.69
2022-10-19T02:21:22.546Z,100327.69
2022-10-19T02:25:38.627Z,100328.72
2022-10-19T02:29:54.955Z,100332.50
2022-10-19T02:34:11.676Z,100325.31
2022-10-19T02:38:27.991Z,100325.94
2022-10-19T02:43:00.711Z,100331.94
2022-10-19T02:47:25.712Z,100328.06
2022-10-19T02:52:02.568Z,100327.09
2022-10-19T02:56:18.716Z,100338.53
2022-10-19T03:00:35.029Z,100335.47
2022-10-19T03:04:51.113Z,100337.72
2022-10-19T03:09:07.290Z,100351.94
2022-10-19T03:13:23.390Z,100353.94
2022-10-19T03:17:39.488Z,100350.84
2022-10-19T03:21:55.734Z,100355.00
2022-10-19T03:26:14.608Z,100349.00
2022-10-19T03:30:30.818Z,100343.50
2022-10-19T03:34:46.948Z,100348.87
2022-10-19T03:39:14.064Z,100339.00
2022-10-19T03:43:30.216Z,100333.03
2022-10-19T03:47:50.476Z,100338.47
2022-10-19T03:52:06.740Z,100342.13
2022-10-19T03:56:24.979Z,100358.38
2022-10-19T04:00:41.110Z,100366.84
2022-10-19T04:04:58.324Z,100351.53
2022-10-19T04:09:17.134Z,100349.59
2022-10-19T04:13:33.957Z,100358.09
2022-10-19T04:17:50.139Z,100355.09
2022-10-19T04:22:06.261Z,100342.28
2022-10-19T04:26:22.498Z,100344.63
2022-10-19T04:30:38.746Z,100351.00
2022-10-19T04:34:54.844Z,100356.78
2022-10-19T04:39:10.981Z,100364.44
2022-10-19T04:43:27.102Z,100370.47
2022-10-19T04:47:43.184Z,100378.69
2022-10-19T04:51:59.292Z,100363.88
2022-10-19T04:56:20.787Z,100367.69
2022-10-19T05:00:39.125Z,100363.88
2022-10-19T05:04:55.255Z,100363.06
2022-10-19T05:09:11.754Z,100363.59
2022-10-19T05:13:27.873Z,100372.37
2022-10-19T05:17:44.166Z,100369.91
2022-10-19T05:22:00.349Z,100373.22
2022-10-19T05:26:18.983Z,100388.25
2022-10-19T05:30:35.281Z,100400.31
2022-10-19T05:34:51.460Z,100398.66
2022-10-19T05:39:15.914Z,100390.16
2022-10-19T05:43:32.067Z,100384.16
2022-10-19T05:47:48.238Z,100393.72
2022-10-19T05:52:04.414Z,100403.84
2022-10-19T05:56:26.238Z,100407.13
2022-10-19T06:00:42.404Z,100410.37
2022-10-19T06:04:58.619Z,100414.19
2022-10-19T06:09:14.924Z,100414.28
2022-10-19T06:13:31.150Z,100417.03
2022-10-19T06:17:47.232Z,100428.28
2022-10-19T06:22:03.365Z,100418.69
2022-10-19T06:26:20.758Z,100417.34
2022-10-19T06:30:41.117Z,100427.84
2022-10-19T06:34:57.317Z,100424.47
2022-10-19T06:39:13.764Z,100425.81
2022-10-19T06:43:29.990Z,100445.31
2022-10-19T06:52:07.877Z,100464.03
2022-10-19T06:56:27.525Z,100465.62
2022-10-19T07:00:43.681Z,100477.66
2022-10-19T07:05:04.470Z,100477.13
2022-10-19T07:09:23.163Z,100472.44
2022-10-19T07:13:39.643Z,100478.75
2022-10-19T07:17:55.785Z,100478.66
2022-10-19T07:22:15.532Z,100480.00
2022-10-19T07:26:35.100Z,100472.16
2022-10-19T07:30:51.247Z,100474.44
2022-10-19T07:35:07.732Z,100476.41
2022-10-19T07:39:23.983Z,100461.41
2022-10-19T07:43:40.718Z,100463.44
2022-10-19T07:47:57.066Z,100464.81
2022-10-19T07:52:13.310Z,100465.19
2022-10-19T07:56:30.340Z,100456.63
2022-10-19T08:00:46.765Z,100451.84
2022-10-19T08:05:06.206Z,100449.25
2022-10-19T08:09:50.781Z,100448.91
2022-10-19T08:14:02.922Z,100456.19
2022-10-19T08:18:19.174Z,100466.31
2022-10-19T08:22:35.886Z,100452.31
2022-10-19T08:26:52.446Z,100449.41
2022-10-19T08:31:16.947Z,100447.16
2022-10-19T08:35:33.072Z,100447.44
2022-10-19T08:39:49.376Z,100441.53
2022-10-19T08:44:23.723Z,100433.25
2022-10-19T08:48:43.166Z,100442.19
2022-10-19T08:53:05.957Z,100431.91
2022-10-19T08:57:27.058Z,100423.13
2022-10-19T09:02:03.813Z,100421.44
2022-10-19T09:06:27.745Z,100424.69
2022-10-19T09:10:46.404Z,100416.66
2022-10-19T09:15:07.280Z,100421.91
2022-10-19T09:19:26.387Z,100412.00
2022-10-19T09:23:58.991Z,100415.00
2022-10-19T09:28:40.539Z,100419.38
2022-10-19T09:33:01.368Z,100427.53
2022-10-19T09:37:25.659Z,100423.13
2022-10-19T09:41:55.948Z,100419.00
2022-10-19T09:46:20.320Z,100412.31
2022-10-19T09:50:36.722Z,100409.00
2022-10-19T09:55:04.877Z,100406.00
2022-10-19T09:59:28.557Z,100402.06
2022-10-19T10:03:53.753Z,100393.84
2022-10-19T10:08:17.071Z,100391.94
2022-10-19T10:12:35.065Z,100388.38
2022-10-19T10:17:02.670Z,100385.91
2022-10-19T10:21:34.847Z,100383.63
2022-10-19T10:25:51.050Z,100378.69
2022-10-19T10:30:10.860Z,100385.31
2022-10-19T10:35:01.314Z,100378.12
2022-10-19T10:39:18.029Z,100379.25
2022-10-19T10:43:36.593Z,100379.03
2022-10-19T10:47:53.580Z,100374.03
2022-10-19T10:52:17.570Z,100367.91
2022-10-19T10:56:34.588Z,100363.97
2022-10-19T11:00:52.031Z,100374.44
2022-10-19T11:05:21.818Z,100371.84
2022-10-19T11:09:43.307Z,100367.09
2022-10-19T11:14:46.832Z,100364.22
2022-10-19T11:19:19.417Z,100348.53
2022-10-19T11:23:57.718Z,100344.28
2022-10-19T11:28:13.921Z,100339.88
2022-10-19T11:32:47.875Z,100339.81
2022-10-19T11:37:19.367Z,100327.28
2022-10-19T11:41:56.804Z,100331.81
2022-10-19T11:46:26.283Z,100317.28
2022-10-19T11:51:17.296Z,100325.41
2022-10-19T11:55:52.793Z,100311.28
2022-10-19T12:00:37.569Z,100308.53
2022-10-19T12:05:28.198Z,100297.78
2022-10-19T12:10:12.882Z,100292.91
2022-10-19T12:14:33.408Z,100287.56
2022-10-19T12:19:00.679Z,100281.59
2022-10-19T12:23:34.509Z,100272.88
2022-10-19T12:27:51.817Z,100272.47
2022-10-19T12:32:08.447Z,100274.50
2022-10-19T12:36:24.853Z,100261.47
2022-10-19T12:41:08.298Z,100269.62
2022-10-19T12:45:52.517Z,100262.06
2022-10-19T12:50:08.940Z,100268.44
2022-10-19T12:54:31.360Z,100260.69
2022-10-19T12:58:50.929Z,100273.25
2022-10-19T13:03:25.175Z,100269.19
2022-10-19T13:07:48.182Z,100267.66
2022-10-19T13:12:21.330Z,100260.59
2022-10-19T13:16:57.568Z,100265.94
2022-10-19T13:21:33.894Z,100264.34
2022-10-19T13:26:10.153Z,100279.84
2022-10-19T13:30:35.554Z,100271.06
2022-10-19T13:34:51.801Z,100278.25
2022-10-19T13:39:13.719Z,100265.75
2022-10-19T13:43:54.028Z,100265.78
2022-10-19T13:48:21.723Z,100257.66
2022-10-19T13:52:40.652Z,100266.66
2022-10-19T13:57:18.359Z,100278.91
2022-10-19T14:02:13.339Z,100288.31
2022-10-19T14:06:48.008Z,100273.22
2022-10-19T14:11:34.088Z,100267.94
2022-10-19T14:15:55.973Z,100274.06
2022-10-19T14:20:32.599Z,100258.78
2022-10-19T14:24:48.764Z,100266.41
2022-10-19T14:29:04.970Z,100260.84
2022-10-19T14:33:21.380Z,100264.53
2022-10-19T14:37:38.129Z,100259.81
2022-10-19T14:41:57.156Z,100254.31
2022-10-19T14:46:16.535Z,100253.22
2022-10-19T14:50:54.354Z,100260.59
2022-10-19T14:55:20.249Z,100254.31
2022-10-19T14:59:46.762Z,100246.59
2022-10-19T15:04:03.754Z,100237.00
2022-10-19T15:08:32.697Z,100234.00
2022-10-19T15:12:51.258Z,100246.19
2022-10-19T15:17:21.450Z,100261.22
2022-10-19T15:21:38.058Z,100285.09
2022-10-19T15:26:01.699Z,100278.03
2022-10-19T15:30:32.948Z,100270.81
2022-10-19T15:34:49.309Z,100280.59
2022-10-19T15:43:57.679Z,100291.87
2022-10-19T15:48:22.295Z,100301.63
2022-10-19T15:52:38.498Z,100298.75
2022-10-19T15:56:56.624Z,100315.19
2022-10-19T16:01:19.318Z,100318.91
2022-10-19T16:05:36.616Z,100338.22
2022-10-19T16:09:53.460Z,100335.31
2022-10-19T16:14:09.664Z,100340.88
2022-10-19T16:18:26.004Z,100339.25
2022-10-19T16:22:43.197Z,100340.56
2022-10-19T16:26:59.453Z,100352.34
2022-10-19T16:31:15.984Z,100360.59
2022-10-19T16:35:32.236Z,100367.13
2022-10-19T16:39:48.360Z,100366.75
2022-10-19T16:44:04.583Z,100390.53
2022-10-19T16:48:24.172Z,100382.03
2022-10-19T16:52:40.466Z,100380.50
2022-10-19T16:56:56.696Z,100387.59
2022-10-19T17:01:19.055Z,100405.41
2022-10-19T17:05:39.394Z,100407.50
2022-10-19T17:09:55.799Z,100402.28
2022-10-19T17:14:13.272Z,100406.13
2022-10-19T17:18:29.493Z,100417.50
2022-10-19T17:22:45.591Z,100417.59
2022-10-19T17:27:03.562Z,100414.03
2022-10-19T17:31:20.002Z,100436.41
2022-10-19T17:35:36.237Z,100448.66
2022-10-19T17:39:52.779Z,100450.19
2022-10-19T17:44:08.881Z,100452.19
2022-10-19T17:48:25.336Z,100454.50
2022-10-19T17:52:41.510Z,100455.53
2022-10-19T17:56:58.045Z,100458.44
2022-10-19T18:01:15.386Z,100456.78
2022-10-19T18:05:31.706Z,100454.78
2022-10-19T18:09:48.185Z,100457.19
2022-10-19T18:14:05.086Z,100455.00
2022-10-19T18:18:23.214Z,100460.19
2022-10-19T18:27:03.958Z,100468.69
2022-10-19T18:31:25.723Z,100471.78
2022-10-19T18:35:42.018Z,100473.94
2022-10-19T18:39:58.116Z,100474.22
2022-10-19T18:44:14.554Z,100479.44
2022-10-19T18:48:30.845Z,100491.22
2022-10-19T18:52:47.127Z,100492.03
2022-10-19T18:57:03.316Z,100497.25
2022-10-19T19:01:25.235Z,100492.03
2022-10-19T19:05:41.486Z,100488.19
2022-10-19T19:09:57.641Z,100493.44
2022-10-19T19:14:18.868Z,100492.53
2022-10-19T19:18:35.727Z,100501.94
2022-10-19T19:22:51.969Z,100491.50
2022-10-19T19:27:08.271Z,100500.00
2022-10-19T19:31:25.206Z,100515.59
2022-10-19T19:35:45.121Z,100521.09
2022-10-19T19:40:01.253Z,100533.62
2022-10-19T19:44:18.224Z,100528.19
2022-10-19T19:48:34.357Z,100529.25
2022-10-19T19:52:51.869Z,100524.59
2022-10-19T19:57:08.210Z,100534.25
2022-10-19T20:01:25.052Z,100546.03
2022-10-19T20:05:41.698Z,100545.66
2022-10-19T20:09:58.269Z,100558.78
2022-10-19T20:14:14.544Z,100572.47
2022-10-19T20:18:30.758Z,100571.88
2022-10-19T20:22:48.043Z,100574.59
2022-10-19T20:27:04.145Z,100565.75
2022-10-19T20:31:21.177Z,100590.69
2022-10-19T20:35:38.524Z,100601.97
2022-10-19T20:39:54.611Z,100596.97
2022-10-19T20:44:10.800Z,100585.63
2022-10-19T20:48:26.936Z,100592.50
2022-10-19T20:52:43.080Z,100608.41
2022-10-19T20:56:59.550Z,100617.44
2022-10-19T21:01:18.075Z,100608.34
2022-10-19T21:05:37.482Z,100601.56
2022-10-19T21:09:55.470Z,100612.12
2022-10-19T21:14:14.148Z,100607.81
2022-10-19T21:18:30.271Z,100609.56
2022-10-19T21:22:46.439Z,100625.75
2022-10-19T21:27:05.041Z,100625.53
2022-10-19T21:31:23.286Z,100622.94
2022-10-19T21:35:39.462Z,100634.28
2022-10-19T21:39:55.616Z,100631.19
2022-10-19T21:44:12.360Z,100638.62
2022-10-19T21:48:29.662Z,100639.53
2022-10-19T21:52:45.783Z,100632.66
2022-10-19T21:57:03.163Z,100633.81
2022-10-19T22:01:22.084Z,100638.00
2022-10-19T22:05:38.450Z,100636.19
2022-10-19T22:09:55.205Z,100640.50
2022-10-19T22:14:12.833Z,100632.75
2022-10-19T22:18:28.927Z,100635.53
2022-10-19T22:22:45.118Z,100634.78
2022-10-19T22:27:01.405Z,100641.28
2022-10-19T22:31:17.558Z,100638.16
2022-10-19T22:35:33.731Z,100632.12
2022-10-19T22:39:49.872Z,100629.41
2022-10-19T22:44:43.839Z,100646.50
2022-10-19T22:48:59.962Z,100628.50
2022-10-19T22:53:16.094Z,100628.62
2022-10-19T22:57:32.232Z,100634.47
2022-10-19T23:01:48.512Z,100654.88
2022-10-19T23:06:05.219Z,100646.19
2022-10-19T23:10:21.707Z,100643.13
2022-10-19T23:14:37.821Z,100647.81
2022-10-19T23:18:54.077Z,100643.09
2022-10-19T23:23:10.576Z,100644.09
2022-10-19T23:27:26.906Z,100649.38
2022-10-19T23:31:43.488Z,100649.03
2022-10-19T23:36:07.889Z,100647.72
2022-10-19T23:40:24.020Z,100659.56
2022-10-19T23:44:40.133Z,100655.34
2022-10-19T23:48:56.239Z,100667.37
2022-10-19T23:53:12.415Z,100659.12
2022-10-19T23:57:28.608Z,100663.16
